Saint David, Illinois
Current Conditions -  °F | °C
As of 6:54 AM on Friday 28 Nov 2014 (Local Time) from KPIA Reporting Station
Clear Clear  
Wind Chill: 11°   Ceiling: Unl
Heat Index: 19°   Visibility: 10mi
Dew Point:   Wind: 6mph
Humidity: 65%   Direction: 130°SE
Pressure: 30.26"   Gusts: NA
Location:  40.49°N, 90.05°W
Report Text: KPIA 281254Z 13005KT 10SM CLR M07/M13 A3026 RMK AO2 SLP259 T10721128
Loading
Personal Weather Stations






























Interactive Weather Map New forecast layout! Learn more

10-Day Weather Forecast

Advertisements
Track Severe Weather on mobile